Terminal Aerodrome Forecast
Issued by NWS

Home | Current Version | Previous Version | Text Only | Print | Product List | Glossary On
Versions: 1 2 3 4 5 6 7 8 9 10 11 12 13
000
FTUS45 KGGW 220500
TAFSDY
TAF
KSDY 220524Z 2206/2306 30014G20KT 6SM -RA BR SCT030 BKN060
     FM220800 29012G18KT P6SM VCSH SCT070 BKN120
     FM221200 28010KT P6SM FEW250
     FM221500 26017G26KT P6SM SKC
     FM222300 26006KT P6SM SKC
      AMD LTD TO CLD VIS AND WIND=

USA.gov is the U.S. government's official web portal to all federal, state and local government web resources and services.